Time;durP1;ratioP1;P1;durP2;ratioP2;P2;SDS_P1;SDS_P2;PMS_P1;PMS_P2;Temp;Humidity;BMP_temperature;BMP_pressure;BME280_temperature;BME280_humidity;BME280_pressure;Samples;Min_cycle;Max_cycle;Signal;HPM_P1;HPM_P2
2020/12/18 00:00:57;;;;;;;81.13;24.27;;;1.40;99.90;;;;;;4158303;28;20275;-47
2020/12/18 00:02:58;;;;;;;89.37;24.33;;;1.40;99.90;;;;;;4159276;28;20694;-46
2020/12/18 00:05:00;;;;;;;79.00;22.97;;;1.40;99.90;;;;;;4158445;28;20380;-47
2020/12/18 00:07:01;;;;;;;81.97;22.40;;;1.40;99.90;;;;;;4159980;28;20298;-52
2020/12/18 00:09:05;;;;;;;85.73;23.67;;;1.30;99.90;;;;;;4158346;28;20270;-55
2020/12/18 00:11:07;;;;;;;88.53;24.13;;;1.40;99.90;;;;;;4158570;28;20282;-48
2020/12/18 00:13:08;;;;;;;85.20;23.77;;;1.40;99.90;;;;;;4157935;28;20313;-46
2020/12/18 00:15:10;;;;;;;100.73;25.67;;;1.40;99.90;;;;;;4158519;28;20286;-51
2020/12/18 00:17:11;;;;;;;86.63;25.27;;;1.40;99.90;;;;;;4158612;28;20703;-48
2020/12/18 00:19:12;;;;;;;98.93;25.90;;;1.40;99.90;;;;;;4158594;28;20274;-46
2020/12/18 00:21:17;;;;;;;98.07;25.30;;;1.40;99.90;;;;;;4158440;28;20317;-53
2020/12/18 00:23:18;;;;;;;92.63;25.83;;;1.40;99.90;;;;;;4157873;28;20332;-48
2020/12/18 00:25:19;;;;;;;94.27;23.97;;;1.40;99.90;;;;;;4158652;28;20376;-44
2020/12/18 00:27:20;;;;;;;93.17;26.97;;;1.40;99.90;;;;;;4158045;28;20352;-45
2020/12/18 00:29:22;;;;;;;92.33;25.80;;;1.50;99.90;;;;;;4158668;28;20820;-56
2020/12/18 00:31:26;;;;;;;89.87;26.47;;;1.50;99.90;;;;;;4157522;28;20271;-45
2020/12/18 00:33:27;;;;;;;92.63;25.33;;;1.50;99.90;;;;;;4144887;28;20326;-48
2020/12/18 00:35:29;;;;;;;85.93;24.90;;;1.50;99.90;;;;;;4140757;28;21260;-45
2020/12/18 00:37:30;;;;;;;94.90;25.83;;;1.50;99.90;;;;;;4142396;28;20275;-57
2020/12/18 00:39:31;;;;;;;99.47;25.33;;;1.50;99.90;;;;;;4140928;28;20264;-47
2020/12/18 00:41:32;;;;;;;97.70;25.33;;;1.50;99.90;;;;;;4142958;28;20662;-48
2020/12/18 00:43:34;;;;;;;80.07;24.50;;;1.50;99.90;;;;;;4140617;28;20648;-49
2020/12/18 00:45:35;;;;;;;89.67;26.87;;;1.50;99.90;;;;;;4142582;28;20299;-45
2020/12/18 00:47:37;;;;;;;95.67;26.53;;;1.50;99.90;;;;;;4140091;28;20322;-50
2020/12/18 00:49:40;;;;;;;98.87;26.07;;;1.50;99.90;;;;;;4141778;28;20268;-45
2020/12/18 00:51:41;;;;;;;94.93;25.63;;;1.50;99.90;;;;;;4141686;28;20740;-54
2020/12/18 00:53:42;;;;;;;80.97;24.90;;;1.60;99.90;;;;;;4141859;28;20263;-45
2020/12/18 00:55:44;;;;;;;85.83;24.63;;;1.60;99.90;;;;;;4142123;28;20271;-49
2020/12/18 00:57:45;;;;;;;82.90;25.53;;;1.60;99.90;;;;;;4141192;28;20325;-48
2020/12/18 00:59:47;;;;;;;87.33;24.43;;;1.60;99.90;;;;;;4140901;28;20663;-53
2020/12/18 01:01:48;;;;;;;80.43;25.87;;;1.60;99.90;;;;;;4140328;28;20279;-49
2020/12/18 01:03:49;;;;;;;80.13;22.90;;;1.70;99.90;;;;;;4142074;28;20668;-45
2020/12/18 01:05:50;;;;;;;83.20;23.33;;;1.70;99.90;;;;;;4141176;28;20291;-46
2020/12/18 01:07:51;;;;;;;91.83;26.00;;;1.70;99.90;;;;;;4124778;28;20310;-53
2020/12/18 01:09:52;;;;;;;78.90;23.33;;;1.70;99.90;;;;;;4140772;28;20355;-50
2020/12/18 01:11:53;;;;;;;78.93;21.63;;;1.70;99.90;;;;;;4141396;28;20276;-48
2020/12/18 01:13:54;;;;;;;73.60;23.23;;;1.70;99.90;;;;;;4140159;28;20275;-50
2020/12/18 01:15:56;;;;;;;80.07;24.47;;;1.70;99.90;;;;;;4142339;28;20761;-48
2020/12/18 01:17:57;;;;;;;67.33;22.43;;;1.80;99.90;;;;;;4144247;28;20701;-50
2020/12/18 01:19:58;;;;;;;68.23;20.70;;;1.80;99.90;;;;;;4157601;28;20329;-55
2020/12/18 01:22:01;;;;;;;63.50;22.17;;;1.80;99.90;;;;;;4156877;28;20325;-46
2020/12/18 01:24:02;;;;;;;66.73;21.40;;;1.80;99.90;;;;;;4157469;28;20329;-52
2020/12/18 01:26:03;;;;;;;65.13;21.70;;;1.80;99.90;;;;;;4157557;28;20938;-50
2020/12/18 01:28:04;;;;;;;58.93;20.40;;;1.80;99.90;;;;;;4157309;28;20271;-62
2020/12/18 01:30:05;;;;;;;60.13;19.47;;;1.80;99.90;;;;;;4157656;28;20333;-49
2020/12/18 01:32:07;;;;;;;64.67;20.80;;;1.80;99.90;;;;;;4151734;28;20314;-52
2020/12/18 01:34:08;;;;;;;70.00;20.70;;;1.80;99.90;;;;;;4141631;28;20280;-52
2020/12/18 01:36:09;;;;;;;67.10;20.77;;;1.90;99.90;;;;;;4139318;28;20414;-57
2020/12/18 01:38:10;;;;;;;69.23;20.40;;;1.80;99.90;;;;;;4141857;28;20670;-45
2020/12/18 01:40:11;;;;;;;63.50;20.87;;;1.80;99.90;;;;;;4140357;28;20666;-52
2020/12/18 01:42:12;;;;;;;64.43;20.93;;;1.90;99.90;;;;;;4141222;28;20325;-51
2020/12/18 01:44:13;;;;;;;62.57;20.57;;;1.80;99.90;;;;;;4139875;28;20325;-52
2020/12/18 01:46:15;;;;;;;65.70;20.50;;;1.80;99.90;;;;;;4141115;28;20283;-53
2020/12/18 01:48:16;;;;;;;57.37;19.03;;;1.90;99.90;;;;;;4139138;28;20271;-48
2020/12/18 01:50:19;;;;;;;68.73;22.03;;;1.80;99.90;;;;;;4141137;28;20283;-51
2020/12/18 01:52:24;;;;;;;67.67;20.33;;;1.90;99.90;;;;;;4140481;28;20317;-57
2020/12/18 01:54:25;;;;;;;67.00;19.57;;;1.90;99.90;;;;;;4141050;28;20315;-58
2020/12/18 01:56:27;;;;;;;64.77;21.27;;;1.90;99.90;;;;;;4140614;28;20660;-51
2020/12/18 01:58:32;;;;;;;61.50;20.03;;;1.90;99.90;;;;;;4140411;28;20679;-54
2020/12/18 02:00:33;;;;;;;64.53;20.93;;;1.90;99.90;;;;;;4141155;28;20882;-50
2020/12/18 02:02:35;;;;;;;61.10;21.30;;;1.90;99.90;;;;;;4140404;28;20279;-60
2020/12/18 02:04:41;;;;;;;73.40;22.27;;;1.90;99.90;;;;;;4140704;28;20283;-47
2020/12/18 02:06:45;;;;;;;72.63;22.83;;;2.00;99.90;;;;;;4140251;28;20267;-46
2020/12/18 02:08:49;;;;;;;72.03;23.43;;;1.90;99.90;;;;;;4142405;28;20279;-53
2020/12/18 02:10:50;;;;;;;74.60;24.93;;;1.90;99.90;;;;;;4139635;28;21193;-51
2020/12/18 02:12:51;;;;;;;85.30;26.50;;;2.00;99.90;;;;;;4140414;28;20838;-50
2020/12/18 02:14:52;;;;;;;82.27;27.40;;;1.90;99.90;;;;;;4139289;28;20314;-45
2020/12/18 02:16:53;;;;;;;86.67;27.30;;;1.90;99.90;;;;;;4141132;28;20812;-47
2020/12/18 02:18:56;;;;;;;82.83;26.50;;;1.90;99.90;;;;;;4139069;28;20303;-49
2020/12/18 02:20:57;;;;;;;85.10;26.77;;;1.90;99.90;;;;;;4141655;28;20279;-52
2020/12/18 02:22:59;;;;;;;87.83;26.67;;;1.90;99.90;;;;;;4140269;28;20695;-48
2020/12/18 02:25:02;;;;;;;83.40;27.17;;;1.90;99.90;;;;;;4140663;28;20291;-50
2020/12/18 02:27:03;;;;;;;80.57;26.87;;;1.90;99.90;;;;;;4140013;28;20259;-47
2020/12/18 02:29:05;;;;;;;82.43;27.73;;;1.90;99.90;;;;;;4140829;28;20313;-47
2020/12/18 02:31:07;;;;;;;79.63;26.43;;;1.90;99.90;;;;;;4140286;28;20872;-54
2020/12/18 02:33:09;;;;;;;81.03;27.50;;;1.90;99.90;;;;;;4139464;28;20325;-46
2020/12/18 02:35:10;;;;;;;88.33;25.47;;;1.90;99.90;;;;;;4142686;28;20260;-46
2020/12/18 02:37:11;;;;;;;85.50;27.70;;;1.90;99.90;;;;;;4143685;28;20298;-53
2020/12/18 02:39:12;;;;;;;78.90;27.10;;;1.80;99.90;;;;;;4144605;28;20742;-47
2020/12/18 02:41:13;;;;;;;97.53;28.33;;;1.80;99.90;;;;;;4143366;28;20275;-56
2020/12/18 02:43:14;;;;;;;84.00;29.30;;;1.80;99.90;;;;;;4144377;28;20715;-47
2020/12/18 02:45:15;;;;;;;80.27;27.37;;;1.80;99.90;;;;;;4142371;28;21318;-46
2020/12/18 02:47:17;;;;;;;85.10;26.87;;;1.90;99.90;;;;;;4144193;28;20274;-47
2020/12/18 02:49:18;;;;;;;87.00;28.87;;;1.90;99.90;;;;;;4143445;28;20333;-45
2020/12/18 02:51:19;;;;;;;79.40;28.70;;;1.80;99.90;;;;;;4144642;28;20430;-48
2020/12/18 02:53:23;;;;;;;88.07;29.90;;;1.90;99.90;;;;;;4142186;28;20342;-46
2020/12/18 02:55:24;;;;;;;79.83;28.10;;;1.80;99.90;;;;;;4144168;28;20690;-46
2020/12/18 02:57:25;;;;;;;88.90;28.10;;;1.90;99.90;;;;;;4142951;28;20271;-49
2020/12/18 02:59:27;;;;;;;82.03;27.87;;;1.80;99.90;;;;;;4144199;28;20279;-60
2020/12/18 03:01:28;;;;;;;77.93;27.40;;;1.90;99.90;;;;;;4142726;28;21017;-55
2020/12/18 03:03:29;;;;;;;85.70;30.57;;;1.80;99.90;;;;;;4144487;28;20278;-49
2020/12/18 03:05:30;;;;;;;98.33;28.40;;;1.80;99.90;;;;;;4142820;28;20378;-50
2020/12/18 03:07:31;;;;;;;84.17;27.80;;;1.80;99.90;;;;;;4142936;28;20283;-45
2020/12/18 03:09:33;;;;;;;87.10;28.17;;;1.80;99.90;;;;;;4143007;28;20322;-45
2020/12/18 03:11:34;;;;;;;89.23;26.50;;;1.80;99.90;;;;;;4141900;28;20283;-50
2020/12/18 03:13:35;;;;;;;76.33;24.93;;;1.80;99.90;;;;;;4143911;28;20275;-47
2020/12/18 03:15:36;;;;;;;81.70;26.20;;;1.80;99.90;;;;;;4141896;28;20279;-46
2020/12/18 03:17:37;;;;;;;64.63;21.47;;;1.80;99.90;;;;;;4142729;28;20821;-50
2020/12/18 03:19:38;;;;;;;68.17;23.57;;;1.80;99.90;;;;;;4142828;28;20325;-56
2020/12/18 03:21:39;;;;;;;72.93;24.67;;;1.80;99.90;;;;;;4142849;28;20357;-51
2020/12/18 03:23:40;;;;;;;79.27;23.90;;;1.80;99.90;;;;;;4141784;28;20278;-50
2020/12/18 03:25:42;;;;;;;73.07;22.60;;;1.80;99.90;;;;;;4143081;28;20694;-51
2020/12/18 03:27:44;;;;;;;66.87;23.10;;;1.80;99.90;;;;;;4142088;28;20337;-48
2020/12/18 03:29:45;;;;;;;63.87;23.40;;;1.80;99.90;;;;;;4143835;28;20268;-53
2020/12/18 03:31:46;;;;;;;70.33;23.80;;;1.80;99.90;;;;;;4141635;28;20321;-50
2020/12/18 03:33:47;;;;;;;68.53;21.37;;;1.80;99.90;;;;;;4125891;28;20276;-61
2020/12/18 03:35:49;;;;;;;61.60;21.90;;;1.90;99.90;;;;;;4142766;28;20310;-50
2020/12/18 03:37:50;;;;;;;69.37;23.50;;;1.90;99.90;;;;;;4143261;28;20734;-48
2020/12/18 03:39:51;;;;;;;64.13;22.77;;;1.90;99.90;;;;;;4143086;28;20757;-47
2020/12/18 03:41:53;;;;;;;64.67;22.40;;;1.90;99.90;;;;;;4142263;28;20275;-47
2020/12/18 03:43:54;;;;;;;74.13;22.87;;;1.90;99.90;;;;;;4142354;28;20260;-43
2020/12/18 03:45:55;;;;;;;59.17;21.50;;;1.90;99.90;;;;;;4141114;28;20473;-45
2020/12/18 03:47:56;;;;;;;62.63;20.87;;;1.90;99.90;;;;;;4142267;28;20334;-46
2020/12/18 03:49:57;;;;;;;65.00;21.33;;;1.90;99.90;;;;;;4142375;28;20309;-47
2020/12/18 03:51:58;;;;;;;61.80;22.23;;;1.90;99.90;;;;;;4142461;28;20279;-52
2020/12/18 03:53:59;;;;;;;67.63;24.73;;;1.90;99.90;;;;;;4141413;28;20327;-50
2020/12/18 03:56:00;;;;;;;61.23;21.37;;;1.90;99.90;;;;;;4142510;28;20283;-46
2020/12/18 03:58:02;;;;;;;54.07;19.90;;;1.90;99.90;;;;;;4141614;28;20321;-56
2020/12/18 04:00:07;;;;;;;60.60;20.50;;;2.00;99.90;;;;;;4142755;28;20276;-51
2020/12/18 04:02:09;;;;;;;75.27;22.30;;;1.90;99.90;;;;;;4142223;28;20260;-53
2020/12/18 04:04:10;;;;;;;69.90;22.70;;;1.90;99.90;;;;;;4143025;28;20325;-52
2020/12/18 04:06:11;;;;;;;61.20;22.03;;;1.90;99.90;;;;;;4141766;28;20299;-47
2020/12/18 04:08:12;;;;;;;69.20;23.77;;;1.90;99.90;;;;;;4142431;28;20264;-59
2020/12/18 04:10:13;;;;;;;62.33;21.53;;;1.90;99.90;;;;;;4142044;28;20825;-49
2020/12/18 04:12:14;;;;;;;69.67;22.33;;;1.90;99.90;;;;;;4141929;28;20329;-54
2020/12/18 04:14:17;;;;;;;67.83;23.27;;;1.90;99.90;;;;;;4142208;28;20271;-46
2020/12/18 04:16:18;;;;;;;59.23;19.37;;;1.80;99.90;;;;;;4141228;28;20313;-58
2020/12/18 04:18:19;;;;;;;62.50;20.70;;;1.80;99.90;;;;;;4141702;28;20283;-57
2020/12/18 04:20:20;;;;;;;67.30;22.70;;;1.70;99.90;;;;;;4141050;28;20777;-48
2020/12/18 04:22:21;;;;;;;58.70;20.20;;;1.70;99.90;;;;;;4142612;28;20268;-49
2020/12/18 04:24:22;;;;;;;64.13;22.00;;;1.70;99.90;;;;;;4140793;28;20321;-51
2020/12/18 04:26:23;;;;;;;67.57;21.43;;;1.70;99.90;;;;;;4142205;28;20345;-45
2020/12/18 04:28:24;;;;;;;68.20;23.40;;;1.70;99.90;;;;;;4140311;28;20691;-49
2020/12/18 04:30:26;;;;;;;66.87;23.27;;;1.70;99.90;;;;;;4142091;28;20271;-53
2020/12/18 04:32:27;;;;;;;72.67;22.57;;;1.70;99.90;;;;;;4140868;28;20678;-53
2020/12/18 04:34:28;;;;;;;76.37;22.20;;;1.80;99.90;;;;;;4141488;28;20325;-53
2020/12/18 04:36:29;;;;;;;74.67;23.30;;;1.70;99.90;;;;;;4141002;28;20310;-55
2020/12/18 04:38:31;;;;;;;76.77;23.97;;;1.70;99.90;;;;;;4142055;28;20271;-51
2020/12/18 04:40:35;;;;;;;72.43;23.60;;;1.70;99.90;;;;;;4141265;28;20823;-56
2020/12/18 04:42:36;;;;;;;79.90;24.80;;;1.70;99.90;;;;;;4125518;28;20441;-46
2020/12/18 04:44:37;;;;;;;74.03;23.43;;;1.60;99.90;;;;;;4124923;28;20778;-50
2020/12/18 04:46:42;;;;;;;83.10;22.57;;;1.70;99.90;;;;;;4135890;28;20299;-48
2020/12/18 04:48:46;;;;;;;70.23;24.63;;;1.70;99.90;;;;;;4153036;28;20291;-58
2020/12/18 04:50:47;;;;;;;80.77;24.33;;;1.70;99.90;;;;;;4141206;28;20679;-60
2020/12/18 04:52:55;;;;;;;75.90;24.07;;;1.70;99.90;;;;;;4137820;28;20601;-48
2020/12/18 04:54:59;;;;;;;80.23;24.13;;;1.70;99.90;;;;;;4124767;28;20276;-48
2020/12/18 04:57:02;;;;;;;89.57;25.40;;;1.70;99.90;;;;;;4139916;28;20287;-46
2020/12/18 04:59:04;;;;;;;74.90;22.83;;;1.70;99.90;;;;;;4140505;28;20280;-51
2020/12/18 05:01:06;;;;;;;78.77;24.63;;;1.70;99.90;;;;;;4142347;28;20271;-54
2020/12/18 05:03:07;;;;;;;71.63;23.17;;;1.80;99.90;;;;;;4140256;28;20317;-54
2020/12/18 05:05:10;;;;;;;73.50;24.20;;;1.70;99.90;;;;;;4150241;28;20279;-58
2020/12/18 05:07:11;;;;;;;70.00;22.70;;;1.80;99.90;;;;;;4139130;28;20341;-53
2020/12/18 05:09:12;;;;;;;78.33;23.60;;;1.70;99.90;;;;;;4158631;28;20259;-45
2020/12/18 05:11:22;;;;;;;81.47;23.73;;;1.80;99.90;;;;;;4157233;28;20324;-55
2020/12/18 05:13:24;;;;;;;88.95;26.58;;;1.80;99.90;;;;;;4157320;28;20345;-47
2020/12/18 05:15:26;;;;;;;84.10;24.83;;;1.80;99.90;;;;;;4157552;28;20127;-53
2020/12/18 05:17:27;;;;;;;82.60;24.07;;;1.80;99.90;;;;;;4157007;28;20725;-47
2020/12/18 05:19:28;;;;;;;79.33;25.40;;;1.80;99.90;;;;;;4151831;28;20347;-44
2020/12/18 05:21:30;;;;;;;82.27;24.43;;;1.80;99.90;;;;;;4140907;28;20361;-52
2020/12/18 05:23:42;;;;;;;72.10;22.63;;;1.90;99.90;;;;;;4141646;28;20275;-58
2020/12/18 05:25:44;;;;;;;77.03;25.20;;;1.80;99.90;;;;;;4123915;28;20303;-45
2020/12/18 05:27:45;;;;;;;72.87;24.10;;;1.80;99.90;;;;;;4125257;28;20771;-48
2020/12/18 05:29:46;;;;;;;75.63;24.80;;;1.80;99.90;;;;;;4123612;28;20640;-57
2020/12/18 05:31:48;;;;;;;76.97;25.60;;;1.90;99.90;;;;;;4124686;28;20657;-53
2020/12/18 05:33:49;;;;;;;74.33;24.47;;;1.80;99.90;;;;;;4123549;28;20843;-45
2020/12/18 05:35:53;;;;;;;74.23;24.27;;;1.80;99.90;;;;;;4124265;28;20354;-54
2020/12/18 05:37:57;;;;;;;75.00;26.20;;;1.80;99.90;;;;;;4124318;28;20276;-45
2020/12/18 05:39:58;;;;;;;73.33;22.37;;;1.90;99.90;;;;;;4125517;28;20303;-55
2020/12/18 05:42:01;;;;;;;80.40;24.47;;;1.80;99.90;;;;;;4123680;28;20311;-43
2020/12/18 05:44:06;;;;;;;73.10;22.23;;;1.80;99.90;;;;;;4124755;28;20327;-44
2020/12/18 05:46:15;;;;;;;73.83;22.43;;;1.80;99.90;;;;;;4135446;28;20299;-49
2020/12/18 05:48:16;;;;;;;68.70;21.67;;;1.90;99.90;;;;;;4157520;28;20287;-47
2020/12/18 05:50:18;;;;;;;71.97;23.43;;;1.80;99.90;;;;;;4156324;28;20760;-50
2020/12/18 05:52:20;;;;;;;66.37;22.10;;;1.80;99.90;;;;;;4157423;28;21062;-49
2020/12/18 05:54:22;;;;;;;67.80;22.23;;;1.80;99.90;;;;;;4156982;28;20271;-48
2020/12/18 05:56:29;;;;;;;68.03;22.50;;;1.80;99.90;;;;;;4156387;28;20349;-41
2020/12/18 05:58:31;;;;;;;68.30;23.07;;;1.80;99.90;;;;;;4156090;28;20270;-48
2020/12/18 06:00:37;;;;;;;75.97;22.53;;;1.90;99.90;;;;;;4156693;28;20279;-48
2020/12/18 06:02:43;;;;;;;71.63;24.07;;;1.90;99.90;;;;;;4156186;28;20287;-45
2020/12/18 06:04:45;;;;;;;72.43;23.83;;;2.00;99.90;;;;;;4155960;28;20271;-46
2020/12/18 06:06:47;;;;;;;67.40;21.97;;;1.90;99.90;;;;;;4138980;28;20412;-45
2020/12/18 06:08:55;;;;;;;66.53;22.80;;;1.90;99.90;;;;;;4155296;28;20328;-43
2020/12/18 06:10:58;;;;;;;69.60;21.57;;;1.90;99.90;;;;;;4157246;28;20279;-54
2020/12/18 06:13:03;;;;;;;63.93;22.73;;;1.90;99.90;;;;;;4155632;28;20275;-47
2020/12/18 06:15:05;;;;;;;67.70;23.87;;;1.90;99.90;;;;;;4157014;28;20325;-54
2020/12/18 06:17:11;;;;;;;67.77;22.73;;;1.90;99.90;;;;;;4155292;28;20279;-44
2020/12/18 06:19:15;;;;;;;66.80;22.23;;;1.90;99.90;;;;;;4156981;28;20436;-48
2020/12/18 06:21:18;;;;;;;68.20;22.70;;;1.90;99.90;;;;;;4155048;28;20266;-43
2020/12/18 06:23:19;;;;;;;83.00;22.90;;;1.90;99.90;;;;;;4157525;28;20746;-49
2020/12/18 06:25:20;;;;;;;63.63;22.40;;;2.00;99.90;;;;;;4156021;28;20372;-43
2020/12/18 06:27:21;;;;;;;68.87;23.93;;;2.00;99.90;;;;;;4157258;28;20794;-45
2020/12/18 06:29:24;;;;;;;62.20;21.57;;;2.00;99.90;;;;;;4155182;28;20766;-46
2020/12/18 06:31:30;;;;;;;77.33;26.87;;;2.00;99.90;;;;;;4157175;28;20243;-43
2020/12/18 06:33:51;;;;;;;74.10;24.53;;;2.00;99.90;;;;;;4154736;28;20633;-58
2020/12/18 06:35:53;;;;;;;68.13;23.30;;;2.00;99.90;;;;;;4139183;28;20267;-46
2020/12/18 06:37:55;;;;;;;61.27;23.07;;;2.00;99.90;;;;;;4156049;28;20083;-44
2020/12/18 06:39:56;;;;;;;67.87;23.47;;;2.00;99.90;;;;;;4156026;28;20418;-54
2020/12/18 06:42:10;;;;;;;66.67;24.37;;;2.00;99.90;;;;;;4155328;28;20275;-47
2020/12/18 06:44:32;;;;;;;85.03;30.57;;;2.00;99.90;;;;;;4156802;28;20746;-48
2020/12/18 06:46:33;;;;;;;68.43;22.03;;;2.00;99.90;;;;;;4154753;28;20748;-54
2020/12/18 06:48:34;;;;;;;74.87;24.87;;;2.00;99.90;;;;;;4156394;28;20368;-41
2020/12/18 06:50:36;;;;;;;82.63;29.10;;;2.00;99.90;;;;;;4155895;28;20266;-48
2020/12/18 06:52:47;;;;;;;86.70;29.43;;;2.00;99.90;;;;;;4155723;28;20267;-45
2020/12/18 06:54:57;;;;;;;78.83;27.33;;;2.00;99.90;;;;;;4138298;28;20276;-43
2020/12/18 06:57:20;;;;;;;70.82;24.60;;;2.00;99.90;;;;;;4156249;28;20336;-45
2020/12/18 06:59:22;;;;;;;73.83;25.17;;;2.00;99.90;;;;;;4153927;28;20025;-50
2020/12/18 07:01:30;;;;;;;81.67;25.40;;;2.10;99.90;;;;;;4156471;28;20329;-48
2020/12/18 07:03:35;;;;;;;70.97;26.03;;;2.10;99.90;;;;;;4130884;28;20791;-51
2020/12/18 07:05:42;;;;;;;72.53;25.67;;;2.10;99.90;;;;;;4124293;28;20272;-50
2020/12/18 07:07:48;;;;;;;75.23;26.40;;;2.10;99.90;;;;;;4106533;28;20289;-47
2020/12/18 07:09:52;;;;;;;70.73;25.40;;;2.10;99.90;;;;;;4123441;28;20326;-53
2020/12/18 07:11:53;;;;;;;64.27;22.17;;;2.10;99.90;;;;;;4123735;28;21127;-46
2020/12/18 07:13:55;;;;;;;72.57;22.80;;;2.20;99.90;;;;;;4122921;28;20260;-53
2020/12/18 07:16:03;;;;;;;71.03;23.93;;;2.10;99.90;;;;;;4124141;28;20342;-46
2020/12/18 07:18:04;;;;;;;64.97;22.60;;;2.20;99.90;;;;;;4123155;28;20280;-52
2020/12/18 07:20:05;;;;;;;57.27;21.93;;;2.10;99.90;;;;;;4126066;28;20732;-41
2020/12/18 07:22:09;;;;;;;67.17;23.37;;;2.10;99.90;;;;;;4126835;28;20298;-40
2020/12/18 07:24:12;;;;;;;65.57;23.10;;;2.10;99.90;;;;;;4127244;28;20617;-41
2020/12/18 07:26:14;;;;;;;63.10;21.13;;;2.10;99.90;;;;;;4125473;28;20303;-40
2020/12/18 07:28:17;;;;;;;67.83;22.00;;;2.10;99.90;;;;;;4127263;28;20297;-47
2020/12/18 07:30:20;;;;;;;55.37;20.00;;;2.10;99.90;;;;;;4126121;28;20276;-54
2020/12/18 07:32:21;;;;;;;72.77;24.97;;;2.10;99.90;;;;;;4127338;28;20338;-43
2020/12/18 07:34:22;;;;;;;54.87;19.87;;;2.10;99.90;;;;;;4125508;28;20327;-46
2020/12/18 07:36:26;;;;;;;76.80;24.53;;;2.20;99.90;;;;;;4110229;28;20725;-46
2020/12/18 07:38:32;;;;;;;62.87;22.40;;;2.20;99.90;;;;;;4140816;28;20329;-39
2020/12/18 07:40:37;;;;;;;56.13;19.07;;;2.20;99.90;;;;;;4143976;28;20330;-39
2020/12/18 07:42:40;;;;;;;57.37;21.57;;;2.20;99.90;;;;;;4141875;28;20388;-51
2020/12/18 07:44:41;;;;;;;65.40;21.83;;;2.20;99.90;;;;;;4142264;28;20279;-45
2020/12/18 07:46:43;;;;;;;66.03;20.87;;;2.20;99.90;;;;;;4141904;28;20315;-44
2020/12/18 07:48:46;;;;;;;62.77;22.77;;;2.20;99.90;;;;;;4141121;28;20337;-41
2020/12/18 07:50:56;;;;;;;55.57;20.47;;;2.20;99.90;;;;;;4142927;28;20351;-50
2020/12/18 07:53:04;;;;;;;;;;;2.20;99.90;;;;;;4142725;28;20334;-48
2020/12/18 07:55:06;;;;;;;65.50;21.33;;;2.30;99.90;;;;;;4141808;28;19905;-41
2020/12/18 07:57:08;;;;;;;70.47;22.90;;;2.20;99.90;;;;;;4142855;28;20357;-44
2020/12/18 07:59:10;;;;;;;59.83;19.53;;;2.30;99.90;;;;;;4125224;28;20280;-48
2020/12/18 08:01:17;;;;;;;57.00;21.33;;;2.30;99.90;;;;;;4140898;28;20298;-46
2020/12/18 08:03:18;;;;;;;60.87;20.20;;;2.30;99.90;;;;;;4142473;28;21065;-40
2020/12/18 08:05:21;;;;;;;59.03;22.00;;;2.30;99.90;;;;;;4136954;28;20283;-47
2020/12/18 08:07:22;;;;;;;60.30;22.67;;;2.30;99.90;;;;;;4141564;28;20287;-45
2020/12/18 08:09:23;;;;;;;64.80;22.77;;;2.30;99.90;;;;;;4156269;28;20287;-37
2020/12/18 08:11:27;;;;;;;64.97;22.70;;;2.20;99.90;;;;;;4158002;28;20278;-40
2020/12/18 08:13:29;;;;;;;70.27;23.73;;;2.30;99.90;;;;;;4157721;28;20862;-50
2020/12/18 08:15:30;;;;;;;59.03;21.57;;;2.30;99.90;;;;;;4159639;28;20808;-43
2020/12/18 08:17:33;;;;;;;60.83;22.03;;;2.30;99.90;;;;;;4157839;28;20274;-47
2020/12/18 08:19:34;;;;;;;58.40;22.77;;;2.20;99.90;;;;;;4159238;28;20788;-43
2020/12/18 08:21:44;;;;;;;62.07;23.67;;;2.30;99.90;;;;;;4156877;28;20293;-42
2020/12/18 08:23:52;;;;;;;57.35;19.92;;;2.30;99.90;;;;;;4158049;28;20354;-41
2020/12/18 08:25:55;;;;;;;59.87;19.23;;;2.30;99.90;;;;;;4146573;28;20045;-46
2020/12/18 08:27:57;;;;;;;53.07;19.83;;;2.30;99.90;;;;;;4142907;28;20288;-43
2020/12/18 08:30:00;;;;;;;69.10;23.47;;;2.30;99.90;;;;;;4152684;28;20310;-44
2020/12/18 08:32:03;;;;;;;62.53;22.67;;;2.40;99.90;;;;;;4140835;28;20329;-47
2020/12/18 08:34:07;;;;;;;56.33;20.87;;;2.40;99.90;;;;;;4147580;28;20937;-44
2020/12/18 08:36:11;;;;;;;50.87;20.50;;;2.40;99.90;;;;;;4155178;28;20270;-45
2020/12/18 08:38:13;;;;;;;61.50;22.53;;;2.40;99.90;;;;;;4140462;28;20267;-43
2020/12/18 08:40:26;;;;;;;54.37;21.93;;;2.50;99.90;;;;;;4140880;28;20267;-48
2020/12/18 08:42:27;;;;;;;51.70;18.77;;;2.50;99.90;;;;;;4142178;28;20263;-43
2020/12/18 08:44:38;;;;;;;50.50;18.53;;;2.50;99.90;;;;;;4141358;28;20317;-50
2020/12/18 08:46:39;;;;;;;51.77;19.13;;;2.50;99.90;;;;;;4142077;28;20783;-44
2020/12/18 08:48:40;;;;;;;55.63;20.13;;;2.50;99.90;;;;;;4141196;28;20279;-40
2020/12/18 08:50:41;;;;;;;49.70;18.47;;;2.50;99.90;;;;;;4142395;28;20763;-39
2020/12/18 08:52:44;;;;;;;49.17;17.47;;;2.50;99.90;;;;;;4140735;28;20275;-43
2020/12/18 08:54:45;;;;;;;49.33;17.90;;;2.50;99.90;;;;;;4142000;28;20264;-37
2020/12/18 08:56:47;;;;;;;54.30;19.90;;;2.50;99.90;;;;;;4141049;28;20331;-38
2020/12/18 08:58:59;;;;;;;56.73;21.90;;;2.50;99.90;;;;;;4141560;28;20303;-40
2020/12/18 09:01:01;;;;;;;54.00;19.90;;;2.50;99.90;;;;;;4140134;28;20267;-45
2020/12/18 09:03:03;;;;;;;54.23;20.53;;;2.50;99.90;;;;;;4141976;28;20318;-46
2020/12/18 09:05:22;;;;;;;61.33;19.87;;;2.60;99.90;;;;;;4140630;28;20301;-43
2020/12/18 09:07:39;;;;;;;53.57;20.73;;;2.60;99.90;;;;;;4142115;28;20381;-45
2020/12/18 09:09:53;;;;;;;52.50;21.53;;;2.60;99.90;;;;;;4141218;28;20321;-50
2020/12/18 09:11:54;;;;;;;57.60;20.77;;;2.60;99.90;;;;;;4141954;28;20763;-47
2020/12/18 09:13:55;;;;;;;51.60;20.73;;;2.60;99.90;;;;;;4141941;28;20295;-43
2020/12/18 09:16:03;;;;;;;62.23;20.77;;;2.60;99.90;;;;;;4141515;28;20659;-41
2020/12/18 09:18:06;;;;;;;60.87;20.13;;;2.60;99.90;;;;;;4140715;28;20641;-46
2020/12/18 09:20:07;;;;;;;49.27;19.37;;;2.60;99.90;;;;;;4144023;28;20366;-46
2020/12/18 09:22:09;;;;;;;57.63;21.20;;;2.60;99.90;;;;;;4140349;28;20364;-47
2020/12/18 09:24:19;;;;;;;58.43;21.60;;;2.60;99.90;;;;;;4140450;28;20276;-43
2020/12/18 09:26:31;;;;;;;56.63;19.33;;;2.70;99.90;;;;;;4135253;28;20267;-42
2020/12/18 09:28:40;;;;;;;54.77;19.57;;;2.60;99.90;;;;;;4126094;28;20050;-42
2020/12/18 09:30:49;;;;;;;46.33;18.97;;;2.70;99.90;;;;;;4139539;28;20272;-55
2020/12/18 09:33:09;;;;;;;50.13;19.83;;;2.60;99.90;;;;;;4133289;28;20826;-49
2020/12/18 09:35:10;;;;;;;55.40;18.57;;;2.60;99.90;;;;;;4139507;28;20268;-41
2020/12/18 09:37:12;;;;;;;48.03;19.77;;;2.60;99.90;;;;;;4140387;28;20279;-54
2020/12/18 09:39:13;;;;;;;64.20;23.07;;;2.60;99.90;;;;;;4128374;28;20342;-38
2020/12/18 09:41:18;;;;;;;63.37;23.37;;;2.60;99.90;;;;;;4124410;28;20707;-57
2020/12/18 09:43:20;;;;;;;62.87;23.17;;;2.60;99.90;;;;;;4135387;28;20298;-40
2020/12/18 09:45:21;;;;;;;64.40;22.77;;;2.60;99.90;;;;;;4142336;28;21225;-50
2020/12/18 09:47:23;;;;;;;55.83;20.83;;;2.60;99.90;;;;;;4157262;28;20298;-48
2020/12/18 09:49:24;;;;;;;56.73;20.37;;;2.70;99.90;;;;;;4148365;28;20341;-49
2020/12/18 09:51:25;;;;;;;52.97;20.70;;;2.70;99.90;;;;;;4141007;28;20267;-53
2020/12/18 09:53:27;;;;;;;65.33;21.10;;;2.60;99.90;;;;;;4121634;28;21131;-47
2020/12/18 09:55:29;;;;;;;57.87;21.23;;;2.60;99.90;;;;;;4141104;28;20695;-53
2020/12/18 09:57:30;;;;;;;66.27;22.20;;;2.70;99.90;;;;;;4142780;28;20275;-39
2020/12/18 09:59:31;;;;;;;51.23;20.80;;;2.70;99.90;;;;;;4140169;28;20751;-55
2020/12/18 10:01:32;;;;;;;49.67;18.77;;;2.70;99.90;;;;;;4140129;28;20275;-42
2020/12/18 10:03:34;;;;;;;51.13;18.47;;;2.70;99.90;;;;;;4140392;28;20283;-40
2020/12/18 10:05:36;;;;;;;57.33;19.00;;;2.70;99.90;;;;;;4139594;28;20341;-43
2020/12/18 10:07:37;;;;;;;53.20;19.23;;;2.60;99.90;;;;;;4143880;28;20311;-43
2020/12/18 10:09:38;;;;;;;56.80;20.27;;;2.70;99.90;;;;;;4139549;28;20786;-43
2020/12/18 10:11:39;;;;;;;55.50;19.90;;;2.70;99.90;;;;;;4140597;28;20318;-47
2020/12/18 10:13:40;;;;;;;61.53;22.17;;;2.70;99.90;;;;;;4140578;28;20271;-50
2020/12/18 10:15:41;;;;;;;52.27;20.27;;;2.70;99.90;;;;;;4139349;28;20279;-41
2020/12/18 10:17:42;;;;;;;61.57;21.13;;;2.70;99.90;;;;;;4151928;28;20282;-39
2020/12/18 10:19:44;;;;;;;52.37;19.27;;;2.70;99.90;;;;;;4147053;28;20318;-43
2020/12/18 10:21:45;;;;;;;57.37;21.10;;;2.70;99.90;;;;;;4140941;28;20345;-38
2020/12/18 10:23:46;;;;;;;54.20;18.97;;;2.80;99.90;;;;;;4138504;28;20268;-38
2020/12/18 10:25:47;;;;;;;51.43;18.90;;;2.80;99.90;;;;;;4139872;28;20386;-46
2020/12/18 10:27:48;;;;;;;50.97;19.10;;;2.80;99.90;;;;;;4139687;28;20357;-38
2020/12/18 10:29:49;;;;;;;56.17;21.13;;;2.80;99.90;;;;;;4140421;28;20325;-40
2020/12/18 10:31:57;;;;;;;50.30;19.57;;;2.80;99.90;;;;;;4138282;28;20345;-35